createdAt,value
2023-01-30T00:00:28.499Z,2.00
2023-01-30T00:02:56.802Z,2.50
2023-01-30T00:05:25.489Z,2.70
2023-01-30T00:07:53.742Z,2.60
2023-01-30T00:10:23.635Z,2.50
2023-01-30T00:12:53.937Z,2.50
2023-01-30T00:15:24.029Z,1.90
2023-01-30T00:17:53.896Z,2.10
2023-01-30T00:20:22.866Z,2.10
2023-01-30T00:23:00.492Z,1.80
2023-01-30T00:25:29.749Z,1.60
2023-01-30T00:28:01.251Z,2.10
2023-01-30T00:30:30.966Z,2.10
2023-01-30T00:32:59.567Z,2.10
2023-01-30T00:35:30.411Z,2.00
2023-01-30T00:37:59.309Z,1.80
2023-01-30T00:40:28.404Z,2.20
2023-01-30T00:43:16.113Z,1.90
2023-01-30T00:46:03.496Z,2.00
2023-01-30T00:48:32.686Z,1.90
2023-01-30T00:51:01.194Z,1.70
2023-01-30T00:53:30.306Z,2.00
2023-01-30T00:55:58.519Z,2.40
2023-01-30T00:58:26.779Z,2.10
2023-01-30T01:00:58.047Z,2.20
2023-01-30T01:03:26.407Z,1.90
2023-01-30T01:05:54.817Z,1.90
2023-01-30T01:08:23.112Z,2.00
2023-01-30T01:10:52.647Z,2.00
2023-01-30T01:13:21.333Z,2.10
2023-01-30T01:15:50.337Z,2.10
2023-01-30T01:18:18.773Z,2.50
2023-01-30T01:20:47.806Z,2.50
2023-01-30T01:23:16.293Z,2.40
2023-01-30T01:25:46.415Z,2.60
2023-01-30T01:28:15.050Z,2.30
2023-01-30T01:30:45.911Z,2.60
2023-01-30T01:33:14.297Z,2.40
2023-01-30T01:35:42.882Z,2.10
2023-01-30T01:38:11.415Z,2.70
2023-01-30T01:41:05.013Z,2.20
2023-01-30T01:43:35.237Z,2.10
2023-01-30T01:46:20.949Z,2.90
2023-01-30T01:48:52.250Z,2.30
2023-01-30T01:51:34.563Z,2.70
2023-01-30T01:54:06.729Z,2.20
2023-01-30T01:56:35.138Z,2.70
2023-01-30T01:59:06.946Z,2.30
2023-01-30T02:01:35.162Z,2.40
2023-01-30T02:04:04.627Z,2.10
2023-01-30T02:06:32.958Z,2.00
2023-01-30T02:09:04.376Z,2.70
2023-01-30T02:11:50.098Z,2.40
2023-01-30T02:14:19.147Z,2.00
2023-01-30T02:16:48.012Z,1.90
2023-01-30T02:19:34.930Z,2.00
2023-01-30T02:22:28.223Z,2.10
2023-01-30T02:25:04.432Z,1.90
2023-01-30T02:27:38.226Z,2.30
2023-01-30T02:30:31.612Z,1.90
2023-01-30T02:33:08.982Z,2.00
2023-01-30T02:35:50.257Z,1.90
2023-01-30T02:38:29.373Z,2.20
2023-01-30T02:41:34.634Z,1.90
2023-01-30T02:44:05.252Z,1.90
2023-01-30T02:46:42.801Z,1.70
2023-01-30T02:49:21.547Z,2.00
2023-01-30T02:51:50.408Z,1.90
2023-01-30T02:54:18.687Z,1.60
2023-01-30T02:56:56.866Z,2.00
2023-01-30T02:59:40.438Z,2.30
2023-01-30T03:02:14.772Z,2.40
2023-01-30T03:04:55.184Z,2.40
2023-01-30T03:07:38.873Z,2.20
2023-01-30T03:10:27.420Z,1.90
2023-01-30T03:13:14.098Z,1.60
2023-01-30T03:15:46.224Z,1.80
2023-01-30T03:18:14.934Z,1.50
2023-01-30T03:20:43.365Z,1.80
2023-01-30T03:23:11.952Z,1.40
2023-01-30T03:25:40.972Z,1.80
2023-01-30T03:28:09.517Z,2.00
2023-01-30T03:30:39.806Z,2.10
2023-01-30T03:33:11.342Z,2.00
2023-01-30T03:35:40.605Z,2.10
2023-01-30T03:38:10.018Z,2.00
2023-01-30T03:40:38.299Z,1.50
2023-01-30T03:43:06.628Z,2.00
2023-01-30T03:45:36.036Z,1.60
2023-01-30T03:48:04.591Z,1.90
2023-01-30T04:30:39.525Z,2.60
2023-01-30T04:33:26.570Z,2.80
2023-01-30T04:36:52.529Z,3.20
2023-01-30T04:39:42.750Z,3.40
2023-01-30T04:42:11.280Z,3.40
2023-01-30T04:44:46.729Z,3.30
2023-01-30T04:47:20.389Z,3.00
2023-01-30T04:49:48.900Z,3.90
2023-01-30T04:52:17.612Z,3.70
2023-01-30T04:54:48.274Z,4.40
2023-01-30T04:57:17.041Z,4.10
2023-01-30T04:59:45.412Z,4.00
2023-01-30T05:02:16.123Z,3.90
2023-01-30T05:04:44.486Z,4.00
2023-01-30T05:07:12.987Z,4.00
2023-01-30T05:09:41.704Z,3.70
2023-01-30T05:12:10.056Z,4.00
2023-01-30T05:14:41.479Z,4.70
2023-01-30T05:17:11.818Z,4.90
2023-01-30T05:19:40.344Z,4.40
2023-01-30T05:22:08.750Z,4.60
2023-01-30T05:24:37.619Z,4.20
2023-01-30T05:27:05.953Z,4.20
2023-01-30T05:29:37.203Z,3.80
2023-01-30T05:32:06.460Z,4.10
2023-01-30T05:34:34.779Z,5.40
2023-01-30T05:37:03.006Z,4.70
2023-01-30T05:39:32.001Z,5.20
2023-01-30T05:42:00.922Z,5.00
2023-01-30T05:44:30.156Z,4.50
2023-01-30T05:46:58.331Z,3.90
2023-01-30T05:49:26.678Z,4.70
2023-01-30T05:51:55.030Z,4.20
2023-01-30T05:54:23.389Z,4.20
2023-01-30T05:56:51.696Z,4.20
2023-01-30T05:59:20.409Z,4.50
2023-01-30T06:01:49.198Z,4.30
2023-01-30T06:04:17.754Z,4.10
2023-01-30T06:06:46.444Z,4.20
2023-01-30T06:09:15.516Z,3.90
2023-01-30T06:11:45.667Z,4.00
2023-01-30T06:14:14.037Z,3.40
2023-01-30T06:16:42.314Z,3.90
2023-01-30T06:19:11.014Z,5.00
2023-01-30T06:21:39.549Z,3.80
2023-01-30T06:24:08.031Z,4.40
2023-01-30T06:26:36.493Z,3.90
2023-01-30T06:29:05.402Z,3.70
2023-01-30T06:31:34.255Z,3.40
2023-01-30T06:34:03.866Z,3.80
2023-01-30T06:36:33.097Z,4.50
2023-01-30T06:39:01.416Z,4.50
2023-01-30T06:41:32.769Z,4.00
2023-01-30T06:44:02.014Z,4.00
2023-01-30T06:46:31.144Z,4.20
2023-01-30T06:48:59.927Z,3.80
2023-01-30T06:51:28.869Z,3.80
2023-01-30T06:54:00.553Z,4.80
2023-01-30T06:56:29.114Z,4.60
2023-01-30T06:58:58.048Z,4.60
2023-01-30T07:01:28.937Z,4.60
2023-01-30T07:03:57.916Z,5.20
2023-01-30T07:06:29.270Z,4.10
2023-01-30T07:09:02.924Z,3.90
2023-01-30T07:11:32.593Z,3.60
2023-01-30T07:14:01.605Z,4.40
2023-01-30T07:16:30.981Z,4.90
2023-01-30T07:18:59.477Z,4.10
2023-01-30T07:21:28.834Z,4.40
2023-01-30T07:23:58.159Z,4.40
2023-01-30T07:26:29.948Z,4.30
2023-01-30T07:28:59.094Z,4.90
2023-01-30T07:31:28.257Z,4.20
2023-01-30T07:33:57.018Z,4.80
2023-01-30T07:36:26.215Z,5.10
2023-01-30T07:38:54.604Z,4.40
2023-01-30T07:41:25.825Z,4.20
2023-01-30T07:43:56.533Z,4.10
2023-01-30T07:46:24.907Z,3.80
2023-01-30T07:48:53.881Z,3.90
2023-01-30T07:51:22.816Z,4.00
2023-01-30T07:53:51.791Z,3.70
2023-01-30T07:56:22.428Z,3.90
2023-01-30T07:58:51.541Z,3.40
2023-01-30T08:01:20.087Z,4.10
2023-01-30T08:03:49.655Z,3.90
2023-01-30T08:06:18.453Z,3.80
2023-01-30T08:08:47.091Z,4.20
2023-01-30T08:11:16.770Z,4.10
2023-01-30T08:13:47.806Z,4.10
2023-01-30T08:16:17.394Z,4.50
2023-01-30T08:18:46.652Z,4.30
2023-01-30T08:21:15.661Z,3.80
2023-01-30T08:23:44.789Z,4.20
2023-01-30T08:26:13.339Z,3.90
2023-01-30T08:28:42.366Z,4.10
2023-01-30T08:31:14.459Z,4.20
2023-01-30T08:33:44.753Z,3.90
2023-01-30T08:36:14.753Z,4.10
2023-01-30T08:38:43.352Z,4.80
2023-01-30T08:41:17.995Z,4.40
2023-01-30T08:43:46.742Z,4.00
2023-01-30T08:46:17.709Z,3.60
2023-01-30T08:48:49.892Z,4.10
2023-01-30T08:51:19.974Z,4.00
2023-01-30T08:53:49.120Z,3.90
2023-01-30T08:56:18.922Z,3.60
2023-01-30T08:58:49.540Z,4.30
2023-01-30T09:01:18.198Z,3.50
2023-01-30T09:03:48.377Z,3.30
2023-01-30T09:06:17.761Z,3.10
2023-01-30T09:08:46.035Z,3.40
2023-01-30T09:11:17.237Z,3.80
2023-01-30T09:13:48.629Z,3.70
2023-01-30T09:16:17.322Z,4.10
2023-01-30T09:18:46.516Z,4.30
2023-01-30T09:21:16.566Z,3.60
2023-01-30T09:23:44.928Z,4.10
2023-01-30T09:26:13.810Z,4.40
2023-01-30T09:28:42.759Z,4.10
2023-01-30T09:31:12.288Z,4.30
2023-01-30T09:33:40.961Z,4.30
2023-01-30T09:36:10.153Z,4.80
2023-01-30T09:38:39.786Z,4.30
2023-01-30T09:41:36.207Z,4.30
2023-01-30T09:46:47.995Z,4.60
2023-01-30T09:49:24.919Z,4.00
2023-01-30T09:52:14.033Z,4.20
2023-01-30T09:54:45.021Z,4.90
2023-01-30T09:57:22.642Z,5.40
2023-01-30T10:00:23.697Z,5.40
2023-01-30T10:02:58.247Z,4.10
2023-01-30T10:05:46.735Z,5.20
2023-01-30T10:08:21.460Z,5.30
2023-01-30T10:11:08.156Z,5.50
2023-01-30T10:14:09.851Z,4.70
2023-01-30T10:16:45.837Z,4.30
2023-01-30T10:19:35.658Z,3.40
2023-01-30T10:22:39.759Z,4.40
2023-01-30T10:25:46.961Z,4.50
2023-01-30T10:28:40.002Z,3.70
2023-01-30T10:31:12.404Z,3.90
2023-01-30T10:33:45.664Z,3.30
2023-01-30T10:36:16.908Z,3.50
2023-01-30T10:38:50.912Z,4.10
2023-01-30T10:41:25.011Z,4.40
2023-01-30T10:44:02.068Z,4.20
2023-01-30T10:46:49.789Z,4.50
2023-01-30T10:52:17.925Z,3.90
2023-01-30T10:55:04.561Z,4.10
2023-01-30T10:57:54.721Z,4.30
2023-01-30T11:00:23.547Z,3.90
2023-01-30T11:03:25.579Z,4.00
2023-01-30T11:06:00.389Z,4.00
2023-01-30T11:08:30.998Z,4.00
2023-01-30T11:11:56.385Z,3.70
2023-01-30T11:14:27.217Z,4.00
2023-01-30T11:16:57.005Z,4.40
2023-01-30T11:21:55.916Z,4.60
2023-01-30T11:24:32.270Z,4.20
2023-01-30T11:27:12.073Z,3.90
2023-01-30T11:29:40.979Z,4.50
2023-01-30T11:32:20.001Z,4.50
2023-01-30T11:35:03.066Z,5.30
2023-01-30T11:37:44.799Z,4.80
2023-01-30T11:40:21.752Z,4.60
2023-01-30T11:42:52.126Z,4.10
2023-01-30T11:45:20.497Z,4.20
2023-01-30T11:48:04.899Z,5.00
2023-01-30T11:50:45.406Z,5.10
2023-01-30T11:53:46.208Z,5.20
2023-01-30T11:56:18.639Z,4.10
2023-01-30T11:58:50.416Z,4.30
2023-01-30T12:01:18.979Z,4.40
2023-01-30T12:03:51.581Z,5.50
2023-01-30T12:07:22.146Z,4.80
2023-01-30T12:09:54.774Z,4.30
2023-01-30T12:12:38.141Z,4.60
2023-01-30T12:15:23.564Z,4.40
2023-01-30T12:18:23.342Z,4.10
2023-01-30T12:21:02.617Z,5.30
2023-01-30T12:23:39.136Z,8.10
2023-01-30T12:26:13.327Z,11.20
2023-01-30T12:29:04.832Z,7.80
2023-01-30T12:31:36.173Z,53.60
2023-01-30T12:34:05.305Z,25.90
2023-01-30T12:36:48.227Z,18.60
2023-01-30T12:39:41.931Z,15.50
2023-01-30T12:42:26.068Z,10.00
2023-01-30T12:45:23.885Z,13.00
2023-01-30T12:48:11.288Z,13.60
2023-01-30T12:50:48.050Z,11.40
2023-01-30T12:53:29.066Z,11.30
2023-01-30T12:56:12.766Z,53.80
2023-01-30T12:59:02.117Z,21.90
2023-01-30T13:02:05.163Z,18.80
2023-01-30T13:04:56.218Z,19.10
2023-01-30T13:08:02.490Z,23.10
2023-01-30T13:11:10.414Z,16.60
2023-01-30T13:13:43.243Z,20.20
2023-01-30T13:16:36.829Z,16.70
2023-01-30T13:19:25.462Z,11.40
2023-01-30T13:22:03.968Z,12.80
2023-01-30T13:24:41.997Z,11.30
2023-01-30T13:27:15.921Z,13.70
2023-01-30T13:29:45.072Z,14.90
2023-01-30T13:32:26.542Z,15.20
2023-01-30T13:34:57.091Z,12.10
2023-01-30T13:37:25.965Z,9.10
2023-01-30T13:40:03.930Z,8.70
2023-01-30T13:42:50.241Z,7.70
2023-01-30T13:45:30.985Z,6.10
2023-01-30T13:48:15.638Z,5.30
2023-01-30T13:51:18.004Z,5.80
2023-01-30T13:54:07.937Z,6.20
2023-01-30T13:56:58.617Z,6.80
2023-01-30T13:59:36.220Z,5.10
2023-01-30T14:02:08.541Z,6.00
2023-01-30T14:04:41.607Z,8.50
2023-01-30T14:07:12.879Z,6.20
2023-01-30T14:09:45.889Z,6.00
2023-01-30T14:12:24.334Z,5.00
2023-01-30T14:15:03.752Z,4.40
2023-01-30T14:17:32.927Z,4.50
2023-01-30T14:20:03.055Z,5.10
2023-01-30T14:22:52.530Z,4.70
2023-01-30T14:25:29.976Z,4.10
2023-01-30T14:28:02.036Z,4.50
2023-01-30T14:30:50.264Z,4.30
2023-01-30T14:33:21.643Z,4.90
2023-01-30T14:35:59.678Z,4.20
2023-01-30T14:38:28.554Z,4.50
2023-01-30T14:41:02.088Z,4.30
2023-01-30T14:43:36.906Z,3.80
2023-01-30T14:46:26.374Z,5.40
2023-01-30T14:49:13.872Z,4.20
2023-01-30T14:51:49.002Z,5.10
2023-01-30T14:54:17.232Z,5.00
2023-01-30T14:56:46.826Z,4.80
2023-01-30T14:59:18.352Z,4.10
2023-01-30T15:02:14.825Z,3.90
2023-01-30T15:04:43.511Z,4.60
2023-01-30T15:07:43.374Z,4.20
2023-01-30T15:10:21.343Z,4.00
2023-01-30T15:13:12.066Z,4.70
2023-01-30T15:15:55.368Z,3.30
2023-01-30T15:18:30.993Z,3.90
2023-01-30T15:21:37.838Z,4.10
2023-01-30T15:24:18.170Z,4.20
2023-01-30T15:27:13.038Z,3.30
2023-01-30T15:29:59.828Z,3.50
2023-01-30T15:32:29.453Z,3.90
2023-01-30T15:35:21.782Z,4.30
2023-01-30T15:37:53.369Z,3.60
2023-01-30T15:40:26.331Z,4.10
2023-01-30T15:43:00.638Z,3.60
2023-01-30T15:45:50.590Z,4.30
2023-01-30T15:48:56.649Z,4.50
2023-01-30T16:38:41.779Z,4.70
2023-01-30T16:41:42.734Z,5.60
2023-01-30T16:44:19.579Z,4.90
2023-01-30T16:46:50.530Z,4.00
2023-01-30T16:49:37.099Z,5.00
2023-01-30T16:52:05.344Z,5.80
2023-01-30T16:56:59.301Z,5.70
2023-01-30T16:59:36.058Z,5.00
2023-01-30T17:02:04.599Z,4.70
2023-01-30T17:04:33.259Z,4.30
2023-01-30T17:07:03.551Z,4.70
2023-01-30T17:09:31.034Z,4.30
2023-01-30T17:11:58.128Z,4.40
2023-01-30T17:14:25.946Z,4.40
2023-01-30T17:17:07.841Z,3.90
2023-01-30T17:19:35.462Z,4.20
2023-01-30T17:22:07.819Z,4.20
2023-01-30T17:24:34.813Z,4.10
2023-01-30T17:27:03.586Z,4.80
2023-01-30T17:29:42.864Z,4.20
2023-01-30T17:32:11.765Z,5.00
2023-01-30T17:34:40.570Z,5.20
2023-01-30T17:37:16.412Z,5.70
2023-01-30T17:39:43.202Z,6.30
2023-01-30T17:42:11.299Z,5.80
2023-01-30T17:47:06.076Z,6.00
2023-01-30T17:49:33.368Z,6.80
2023-01-30T17:52:00.287Z,7.40
2023-01-30T17:54:29.623Z,8.40
2023-01-30T17:57:02.893Z,7.50
2023-01-30T17:59:30.655Z,8.00
2023-01-30T18:01:57.920Z,7.60
2023-01-30T18:04:24.811Z,7.30
2023-01-30T18:06:53.537Z,8.30
2023-01-30T18:09:22.180Z,7.60
2023-01-30T18:11:50.564Z,7.20
2023-01-30T18:20:12.570Z,8.50
2023-01-30T18:25:07.258Z,7.40
2023-01-30T18:30:02.941Z,6.10
2023-01-30T18:32:31.928Z,7.20
2023-01-30T18:35:00.396Z,9.30
2023-01-30T18:37:27.398Z,10.80
2023-01-30T18:39:57.475Z,7.70
2023-01-30T18:42:24.616Z,8.80
2023-01-30T18:44:53.000Z,6.50
2023-01-30T18:47:21.705Z,5.50
2023-01-30T18:49:48.851Z,6.20
2023-01-30T18:52:16.065Z,5.00
2023-01-30T18:54:45.882Z,5.30
2023-01-30T18:57:13.240Z,5.70
2023-01-30T18:59:41.015Z,5.50
2023-01-30T19:02:10.982Z,5.00
2023-01-30T19:04:39.171Z,5.30
2023-01-30T19:07:06.330Z,5.30
2023-01-30T19:09:33.134Z,4.70
2023-01-30T19:12:18.476Z,6.90
2023-01-30T19:14:45.653Z,8.60
2023-01-30T19:17:14.877Z,7.10
2023-01-30T19:19:42.873Z,6.20
2023-01-30T19:22:09.880Z,8.10
2023-01-30T19:24:36.619Z,7.80
2023-01-30T19:27:05.082Z,7.30
2023-01-30T20:03:29.247Z,6.70
2023-01-30T20:06:14.132Z,9.40
2023-01-30T20:09:58.843Z,10.00
2023-01-30T20:12:27.917Z,6.30
2023-01-30T20:14:56.169Z,9.20
2023-01-30T20:17:25.300Z,8.80
2023-01-30T20:19:53.724Z,9.50
2023-01-30T20:22:22.283Z,9.40
2023-01-30T20:24:50.589Z,8.60
2023-01-30T20:27:19.801Z,9.20
2023-01-30T20:29:48.097Z,9.70
2023-01-30T20:32:16.550Z,9.40
2023-01-30T20:34:44.893Z,9.50
2023-01-30T20:37:13.265Z,10.70
2023-01-30T20:39:42.214Z,8.90
2023-01-30T20:42:10.760Z,10.50
2023-01-30T20:44:39.768Z,10.50
2023-01-30T20:47:09.399Z,10.10
2023-01-30T20:49:38.405Z,10.60
2023-01-30T20:52:06.769Z,10.10
2023-01-30T20:54:35.920Z,11.20
2023-01-30T20:57:05.975Z,11.80
2023-01-30T20:59:35.061Z,10.90
2023-01-30T21:02:04.384Z,11.20
2023-01-30T21:04:33.392Z,10.60
2023-01-30T21:07:01.813Z,11.60
2023-01-30T21:09:31.450Z,11.60
2023-01-30T21:12:02.370Z,10.50
2023-01-30T21:14:31.057Z,11.80
2023-01-30T21:16:59.603Z,11.20
2023-01-30T21:19:27.928Z,11.90
2023-01-30T21:21:57.685Z,12.60
2023-01-30T21:24:28.336Z,12.00
2023-01-30T21:26:56.649Z,11.60
2023-01-30T21:29:26.955Z,11.50
2023-01-30T21:31:56.547Z,11.80
2023-01-30T21:34:24.913Z,11.30
2023-01-30T21:37:11.921Z,12.50
2023-01-30T21:39:59.106Z,12.80
2023-01-30T21:42:46.197Z,12.40
2023-01-30T21:45:15.507Z,11.70
2023-01-30T21:47:43.830Z,12.10
2023-01-30T21:50:12.374Z,13.20
2023-01-30T21:52:41.186Z,12.20
2023-01-30T21:55:10.032Z,12.50
2023-01-30T21:57:38.938Z,13.00
